createdAt,value
2022-08-01T00:03:09.130Z,14.30
2022-08-01T00:13:12.516Z,14.30
2022-08-01T00:23:17.224Z,14.10
2022-08-01T00:33:20.568Z,14.00
2022-08-01T00:43:25.300Z,13.80
2022-08-01T00:53:28.879Z,13.70
2022-08-01T01:03:59.666Z,13.50
2022-08-01T01:14:12.367Z,13.30
2022-08-01T01:24:33.308Z,13.20
2022-08-01T01:34:42.063Z,13.20
2022-08-01T01:44:47.072Z,13.30
2022-08-01T01:54:54.074Z,13.30
2022-08-01T02:04:59.679Z,13.30
2022-08-01T02:15:06.577Z,13.20
2022-08-01T02:25:20.189Z,13.10
2022-08-01T02:35:29.401Z,12.90
2022-08-01T02:45:36.124Z,12.50
2022-08-01T02:55:41.908Z,12.20
2022-08-01T03:05:46.261Z,11.90
2022-08-01T03:15:52.107Z,11.70
2022-08-01T03:25:56.190Z,11.50
2022-08-01T03:36:04.819Z,11.50
2022-08-01T03:46:12.302Z,11.40
2022-08-01T03:56:21.478Z,11.40
2022-08-01T04:06:24.807Z,11.60
2022-08-01T04:16:29.677Z,11.70
2022-08-01T04:26:34.618Z,11.80
2022-08-01T04:36:42.920Z,12.00
2022-08-01T04:46:49.462Z,12.20
2022-08-01T04:56:56.704Z,12.30
2022-08-01T05:07:00.078Z,12.40
2022-08-01T05:17:08.539Z,12.60
2022-08-01T05:27:13.646Z,13.50
2022-08-01T05:37:21.050Z,13.70
2022-08-01T05:47:24.459Z,13.80
2022-08-01T05:57:29.332Z,14.20
2022-08-01T06:07:32.930Z,15.50
2022-08-01T06:17:37.726Z,16.20
2022-08-01T06:27:41.073Z,16.50
2022-08-01T06:37:47.712Z,16.90
2022-08-01T06:47:51.153Z,17.50
2022-08-01T06:57:56.077Z,18.10
2022-08-01T07:07:59.923Z,18.50
2022-08-01T07:18:05.265Z,19.00
2022-08-01T07:28:08.788Z,20.20
2022-08-01T07:38:13.873Z,22.70
2022-08-01T07:48:17.325Z,25.50
2022-08-01T07:58:22.024Z,28.40
2022-08-01T08:08:25.428Z,31.20
2022-08-01T08:18:30.220Z,32.80
2022-08-01T08:28:33.683Z,34.80
2022-08-01T08:38:38.443Z,36.80
2022-08-01T08:48:44.587Z,38.60
2022-08-01T08:58:49.881Z,39.80
2022-08-01T09:08:53.405Z,41.50
2022-08-01T09:19:16.026Z,43.00
2022-08-01T09:29:37.444Z,43.00
2022-08-01T09:39:44.365Z,43.60
2022-08-01T09:49:50.471Z,45.10
2022-08-01T10:00:00.613Z,46.70
2022-08-01T10:10:12.975Z,46.40
2022-08-01T10:20:28.935Z,45.00
2022-08-01T10:30:34.220Z,43.20
2022-08-01T10:40:40.139Z,42.30
2022-08-01T10:50:48.392Z,39.50
2022-08-01T11:01:33.313Z,39.50
2022-08-01T11:12:06.307Z,39.80
2022-08-01T11:22:11.215Z,41.60
2022-08-01T11:32:31.241Z,40.80
2022-08-01T11:42:48.016Z,41.00
2022-08-01T11:53:00.990Z,40.60
2022-08-01T12:03:08.639Z,36.60
2022-08-01T12:13:12.007Z,33.40
2022-08-01T12:23:18.933Z,32.00
2022-08-01T12:33:23.345Z,30.70
2022-08-01T12:43:29.435Z,29.90
2022-08-01T12:53:40.539Z,30.00
2022-08-01T13:04:01.177Z,30.10
2022-08-01T13:14:04.682Z,29.10
2022-08-01T13:24:13.320Z,28.10
2022-08-01T13:34:17.132Z,27.50
2022-08-01T13:44:22.365Z,27.50
2022-08-01T13:54:25.842Z,27.70
2022-08-01T14:04:30.525Z,28.40
2022-08-01T14:14:34.019Z,29.00
2022-08-01T14:24:38.983Z,28.90
2022-08-01T14:34:44.374Z,28.70
2022-08-01T14:44:49.974Z,29.70
2022-08-01T14:54:53.613Z,29.90
2022-08-01T15:04:58.327Z,29.40
2022-08-01T15:15:01.734Z,28.90
2022-08-01T15:25:07.781Z,28.40
2022-08-01T15:35:12.185Z,28.20
2022-08-01T15:45:45.836Z,28.20
2022-08-01T15:55:52.018Z,28.00
2022-08-01T16:05:58.114Z,27.40
2022-08-01T16:16:02.971Z,26.80
2022-08-01T16:26:15.538Z,26.40
2022-08-01T16:36:31.608Z,25.90
2022-08-01T16:46:36.309Z,25.30
2022-08-01T16:56:39.626Z,24.90
2022-08-01T17:06:45.552Z,24.10
2022-08-01T17:16:49.003Z,23.00
2022-08-01T17:26:53.862Z,21.70
2022-08-01T17:36:57.221Z,20.80
2022-08-01T17:47:01.958Z,20.40
2022-08-01T17:57:05.732Z,19.80
2022-08-01T18:07:13.504Z,19.50
2022-08-01T18:17:17.330Z,19.30
2022-08-01T18:27:22.082Z,19.00
2022-08-01T18:37:27.505Z,18.60
2022-08-01T18:47:37.295Z,18.40
2022-08-01T18:57:42.780Z,18.20
2022-08-01T19:08:06.089Z,17.90
2022-08-01T19:18:10.689Z,17.70
2022-08-01T19:28:18.001Z,17.60
2022-08-01T19:38:21.573Z,17.50
2022-08-01T19:48:26.687Z,17.40
2022-08-01T19:58:30.958Z,17.30
2022-08-01T20:08:36.740Z,17.30
2022-08-01T20:18:41.529Z,17.30
2022-08-01T20:28:48.989Z,17.20
2022-08-01T20:38:55.613Z,17.20
2022-08-01T20:49:01.320Z,17.00
2022-08-01T20:59:39.918Z,16.70
2022-08-01T21:09:39.882Z,16.50
2022-08-01T21:19:46.958Z,16.20
2022-08-01T21:29:53.924Z,16.00
2022-08-01T21:39:59.322Z,15.90
2022-08-01T21:50:50.339Z,15.90
2022-08-01T22:01:02.170Z,15.70
2022-08-01T22:11:09.236Z,15.60
2022-08-01T22:21:13.912Z,15.40
2022-08-01T22:31:19.672Z,15.40
2022-08-01T22:41:31.027Z,15.30
2022-08-01T22:52:05.914Z,15.40
2022-08-01T23:02:11.313Z,15.40
2022-08-01T23:12:19.532Z,15.40
2022-08-01T23:22:23.716Z,15.20
2022-08-01T23:32:28.393Z,15.00
2022-08-01T23:42:31.943Z,14.90
2022-08-01T23:52:47.290Z,14.70
